createdAt,value
2023-02-15T00:03:28.797Z,53.00
2023-02-15T00:07:32.317Z,52.80
2023-02-15T00:11:40.678Z,52.60
2023-02-15T00:15:43.684Z,52.50
2023-02-15T00:19:46.619Z,52.30
2023-02-15T00:23:49.249Z,51.90
2023-02-15T00:27:52.137Z,51.60
2023-02-15T00:31:55.280Z,51.30
2023-02-15T00:36:01.903Z,50.90
2023-02-15T00:40:05.475Z,50.50
2023-02-15T00:44:09.388Z,50.30
2023-02-15T00:48:12.131Z,50.50
2023-02-15T00:52:14.936Z,50.80
2023-02-15T00:56:17.863Z,51.90
2023-02-15T01:00:21.271Z,52.80
2023-02-15T01:04:24.177Z,53.80
2023-02-15T01:08:27.152Z,54.40
2023-02-15T01:12:29.956Z,54.50
2023-02-15T01:16:32.805Z,55.10
2023-02-15T01:20:39.905Z,55.80
2023-02-15T01:24:43.426Z,56.10
2023-02-15T01:28:46.974Z,56.00
2023-02-15T01:32:49.752Z,55.90
2023-02-15T01:36:53.309Z,56.00
2023-02-15T01:41:16.013Z,56.00
2023-02-15T01:45:26.365Z,56.30
2023-02-15T01:49:29.503Z,56.40
2023-02-15T01:53:45.263Z,56.10
2023-02-15T01:57:50.413Z,56.10
2023-02-15T02:01:58.376Z,55.80
2023-02-15T02:06:01.335Z,55.60
2023-02-15T02:10:05.929Z,55.60
2023-02-15T02:14:09.701Z,55.80
2023-02-15T02:18:41.045Z,55.70
2023-02-15T02:22:43.777Z,55.60
2023-02-15T02:27:07.451Z,55.30
2023-02-15T02:31:38.210Z,55.60
2023-02-15T02:35:53.700Z,55.90
2023-02-15T02:40:20.110Z,55.90
2023-02-15T02:44:27.756Z,56.20
2023-02-15T02:48:33.975Z,55.80
2023-02-15T02:52:48.860Z,56.30
2023-02-15T02:56:53.244Z,56.60
2023-02-15T03:01:23.522Z,56.50
2023-02-15T03:05:30.209Z,57.10
2023-02-15T03:09:44.359Z,57.00
2023-02-15T03:13:50.408Z,57.30
2023-02-15T03:17:58.744Z,57.50
2023-02-15T03:22:12.418Z,57.90
2023-02-15T03:26:15.329Z,58.40
2023-02-15T03:30:23.550Z,59.20
2023-02-15T03:34:27.571Z,59.80
2023-02-15T03:38:50.659Z,59.10
2023-02-15T03:43:27.007Z,59.10
2023-02-15T03:47:34.833Z,58.80
2023-02-15T03:51:40.484Z,58.50
2023-02-15T03:55:46.938Z,58.90
2023-02-15T04:00:08.345Z,59.20
2023-02-15T04:04:21.532Z,59.40
2023-02-15T04:08:44.265Z,59.80
2023-02-15T04:12:47.084Z,59.70
2023-02-15T04:16:50.866Z,59.70
2023-02-15T04:21:12.347Z,59.80
2023-02-15T04:25:15.179Z,59.90
2023-02-15T04:29:18.229Z,59.90
2023-02-15T04:33:21.017Z,60.00
2023-02-15T04:37:23.798Z,60.10
2023-02-15T04:41:26.582Z,60.00
2023-02-15T04:45:29.638Z,59.90
2023-02-15T04:49:32.428Z,60.10
2023-02-15T04:53:35.667Z,60.10
2023-02-15T04:57:38.452Z,60.40
2023-02-15T05:01:41.359Z,60.60
2023-02-15T05:05:44.230Z,60.50
2023-02-15T05:09:47.113Z,60.60
2023-02-15T05:13:49.809Z,60.60
2023-02-15T05:17:52.732Z,60.80
2023-02-15T05:21:55.775Z,61.20
2023-02-15T05:26:17.111Z,61.30
2023-02-15T05:30:20.059Z,61.10
2023-02-15T05:34:22.935Z,61.10
2023-02-15T05:38:25.859Z,61.00
2023-02-15T05:42:28.577Z,60.90
2023-02-15T05:46:31.373Z,61.00
2023-02-15T05:50:34.214Z,61.30
2023-02-15T05:54:36.990Z,61.30
2023-02-15T05:58:42.155Z,61.20
2023-02-15T06:02:44.974Z,61.30
2023-02-15T06:06:50.990Z,62.20
2023-02-15T06:10:53.851Z,62.30
2023-02-15T06:14:56.769Z,62.90
2023-02-15T06:19:02.362Z,62.60
2023-02-15T06:23:05.303Z,62.30
2023-02-15T06:27:07.977Z,62.00
2023-02-15T06:31:11.400Z,62.00
2023-02-15T06:35:16.078Z,61.90
2023-02-15T06:39:19.273Z,61.80
2023-02-15T06:43:22.305Z,61.90
2023-02-15T06:47:25.021Z,62.00
2023-02-15T06:51:27.833Z,62.20
2023-02-15T06:55:31.051Z,62.30
2023-02-15T06:59:34.061Z,62.40
2023-02-15T07:03:37.200Z,62.60
2023-02-15T07:07:40.915Z,62.70
2023-02-15T07:12:04.388Z,63.10
2023-02-15T07:16:07.211Z,63.40
2023-02-15T07:20:13.581Z,63.10
2023-02-15T07:24:16.583Z,63.20
2023-02-15T07:28:19.551Z,63.30
2023-02-15T07:32:25.915Z,63.30
2023-02-15T07:36:29.150Z,63.10
2023-02-15T07:40:32.337Z,62.80
2023-02-15T07:44:35.400Z,62.50
2023-02-15T07:48:39.272Z,62.30
2023-02-15T07:52:42.408Z,62.00
2023-02-15T07:56:45.324Z,61.70
2023-02-15T08:00:57.345Z,61.70
2023-02-15T08:05:00.335Z,61.80
2023-02-15T08:09:09.195Z,61.70
2023-02-15T08:13:12.142Z,61.50
2023-02-15T08:17:15.011Z,61.20
2023-02-15T08:21:17.755Z,61.00
2023-02-15T08:25:20.485Z,61.10
2023-02-15T08:29:25.781Z,61.20
2023-02-15T08:33:29.471Z,61.20
2023-02-15T08:37:32.366Z,61.00
2023-02-15T08:41:37.023Z,60.80
2023-02-15T08:45:39.865Z,60.00
2023-02-15T08:49:42.640Z,59.20
2023-02-15T08:53:50.131Z,58.20
2023-02-15T08:57:53.201Z,57.20
2023-02-15T09:01:56.364Z,56.60
2023-02-15T09:06:02.206Z,55.10
2023-02-15T09:10:05.835Z,53.60
2023-02-15T09:14:15.088Z,53.80
2023-02-15T09:18:18.277Z,53.60
2023-02-15T09:22:21.393Z,53.50
2023-02-15T09:26:25.565Z,53.20
2023-02-15T09:30:28.544Z,52.40
2023-02-15T09:34:34.020Z,52.40
2023-02-15T09:38:37.539Z,51.80
2023-02-15T09:42:49.511Z,51.30
2023-02-15T09:47:28.553Z,50.50
2023-02-15T09:51:40.565Z,49.90
2023-02-15T09:56:21.142Z,48.00
2023-02-15T10:00:24.557Z,47.90
2023-02-15T10:04:37.104Z,47.50
2023-02-15T10:08:51.921Z,46.50
2023-02-15T10:13:04.734Z,46.20
2023-02-15T10:17:19.646Z,45.60
2023-02-15T10:21:48.654Z,46.40
2023-02-15T10:26:15.149Z,45.90
2023-02-15T10:30:35.483Z,44.10
2023-02-15T10:35:01.761Z,42.90
2023-02-15T10:39:31.899Z,42.60
2023-02-15T10:43:47.278Z,42.40
2023-02-15T10:48:01.475Z,41.80
2023-02-15T10:52:12.177Z,41.10
2023-02-15T10:56:36.877Z,41.30
2023-02-15T11:01:05.264Z,40.90
2023-02-15T11:05:29.831Z,40.30
2023-02-15T11:09:50.375Z,40.30
2023-02-15T11:14:02.359Z,38.60
2023-02-15T11:18:33.883Z,38.60
2023-02-15T11:22:37.199Z,38.10
2023-02-15T11:26:56.511Z,37.30
2023-02-15T11:31:04.673Z,36.70
2023-02-15T11:35:28.903Z,35.40
2023-02-15T11:39:33.166Z,34.90
2023-02-15T11:43:52.762Z,34.10
2023-02-15T11:47:56.764Z,34.30
2023-02-15T11:52:03.128Z,32.40
2023-02-15T11:56:13.583Z,32.80
2023-02-15T12:00:41.719Z,33.10
2023-02-15T12:04:53.654Z,32.80
2023-02-15T12:09:21.935Z,31.90
2023-02-15T12:13:26.061Z,32.00
2023-02-15T12:17:41.469Z,31.10
2023-02-15T12:21:44.853Z,31.00
2023-02-15T12:25:55.284Z,31.10
2023-02-15T12:30:20.993Z,30.70
2023-02-15T12:34:33.761Z,30.50
2023-02-15T12:38:37.447Z,30.10
2023-02-15T12:42:45.657Z,30.70
2023-02-15T12:47:17.275Z,31.30
2023-02-15T12:51:20.114Z,31.90
2023-02-15T12:55:27.562Z,31.70
2023-02-15T12:59:30.390Z,32.00
2023-02-15T13:03:34.140Z,32.40
2023-02-15T13:07:38.473Z,31.50
2023-02-15T13:11:43.802Z,32.00
2023-02-15T13:15:51.954Z,32.10
2023-02-15T13:19:55.571Z,32.10
2023-02-15T13:24:03.720Z,32.10
2023-02-15T13:28:08.120Z,32.30
2023-02-15T13:32:30.005Z,32.90
2023-02-15T13:36:44.390Z,32.80
2023-02-15T13:41:05.281Z,32.90
2023-02-15T13:45:33.430Z,32.50
2023-02-15T13:50:07.080Z,33.10
2023-02-15T13:54:28.347Z,33.40
2023-02-15T13:58:34.009Z,33.40
2023-02-15T14:02:50.122Z,33.20
2023-02-15T14:07:11.762Z,33.50
2023-02-15T14:11:23.674Z,33.40
2023-02-15T14:15:47.885Z,33.50
2023-02-15T14:20:12.563Z,33.10
2023-02-15T14:24:30.532Z,33.00
2023-02-15T14:28:44.294Z,32.90
2023-02-15T14:32:57.444Z,33.40
2023-02-15T14:37:00.813Z,32.50
2023-02-15T14:41:08.799Z,32.20
2023-02-15T14:45:33.269Z,32.20
2023-02-15T14:49:39.111Z,32.70
2023-02-15T14:53:43.208Z,31.70
2023-02-15T14:57:59.416Z,31.90
2023-02-15T15:02:10.233Z,32.40
2023-02-15T15:06:30.350Z,32.40
2023-02-15T15:10:47.707Z,32.50
2023-02-15T15:14:51.952Z,32.60
2023-02-15T15:18:56.073Z,32.40
2023-02-15T15:23:41.644Z,32.40
2023-02-15T15:27:55.474Z,33.10
2023-02-15T15:32:02.366Z,32.70
2023-02-15T15:36:42.779Z,32.70
2023-02-15T15:41:08.143Z,33.10
2023-02-15T15:45:30.982Z,32.80
2023-02-15T15:49:40.190Z,32.80
2023-02-15T15:53:54.306Z,32.60
2023-02-15T15:58:04.233Z,32.90
2023-02-15T16:02:12.654Z,33.10
2023-02-15T16:06:26.688Z,33.30
2023-02-15T16:10:33.230Z,33.20
2023-02-15T16:14:37.599Z,33.40
2023-02-15T16:18:43.376Z,34.50
2023-02-15T16:23:04.808Z,34.40
2023-02-15T16:27:35.013Z,35.20
2023-02-15T16:31:37.821Z,35.40
2023-02-15T16:36:04.660Z,36.40
2023-02-15T16:40:26.476Z,37.00
2023-02-15T16:44:33.905Z,37.80
2023-02-15T16:48:42.716Z,38.10
2023-02-15T16:52:46.199Z,37.90
2023-02-15T16:56:49.761Z,37.80
2023-02-15T17:00:57.401Z,37.40
2023-02-15T17:05:12.625Z,37.50
2023-02-15T17:09:23.363Z,37.90
2023-02-15T17:13:27.341Z,38.50
2023-02-15T17:17:32.637Z,38.90
2023-02-15T17:21:42.627Z,38.90
2023-02-15T17:25:45.371Z,38.90
2023-02-15T17:29:52.895Z,39.10
2023-02-15T17:33:57.629Z,39.20
2023-02-15T17:38:05.549Z,39.40
2023-02-15T17:42:08.361Z,39.60
2023-02-15T17:46:11.167Z,39.80
2023-02-15T17:50:25.586Z,40.30
2023-02-15T17:54:47.616Z,40.70
2023-02-15T17:58:50.320Z,41.10
2023-02-15T18:03:12.304Z,41.40
2023-02-15T18:07:35.648Z,41.80
2023-02-15T18:11:38.432Z,42.10
2023-02-15T18:15:41.288Z,42.40
2023-02-15T18:19:46.277Z,42.80
2023-02-15T18:23:49.045Z,43.00
2023-02-15T18:27:54.931Z,43.90
2023-02-15T18:31:59.521Z,44.40
2023-02-15T18:36:04.342Z,44.70
2023-02-15T18:40:16.822Z,45.30
2023-02-15T18:44:19.620Z,45.70
2023-02-15T18:48:22.891Z,46.50
2023-02-15T18:52:31.725Z,47.10
2023-02-15T18:56:35.489Z,47.50
2023-02-15T19:00:38.449Z,47.30
2023-02-15T19:04:41.948Z,47.50
2023-02-15T19:08:47.227Z,47.30
2023-02-15T19:12:51.268Z,47.00
2023-02-15T19:16:55.327Z,46.30
2023-02-15T19:20:58.168Z,45.90
2023-02-15T19:25:03.409Z,45.40
2023-02-15T19:29:06.386Z,45.20
2023-02-15T19:33:18.924Z,45.10
2023-02-15T19:37:26.518Z,45.30
2023-02-15T19:41:34.506Z,45.20
2023-02-15T19:45:37.443Z,45.30
2023-02-15T19:49:40.413Z,45.20
2023-02-15T19:53:43.596Z,45.20
2023-02-15T19:57:46.357Z,45.30
2023-02-15T20:01:49.259Z,45.30
2023-02-15T20:05:52.159Z,45.30
2023-02-15T20:09:55.549Z,45.60
2023-02-15T20:13:58.984Z,45.70
2023-02-15T20:18:04.238Z,45.90
2023-02-15T20:22:11.255Z,46.10
2023-02-15T20:26:18.233Z,46.50
2023-02-15T20:30:24.212Z,47.20
2023-02-15T20:34:27.087Z,47.60
2023-02-15T20:38:32.596Z,47.80
2023-02-15T20:42:35.477Z,48.60
2023-02-15T20:46:38.712Z,49.00
2023-02-15T20:50:41.401Z,49.30
2023-02-15T20:54:44.734Z,49.80
2023-02-15T20:58:47.602Z,49.90
2023-02-15T21:02:56.668Z,50.30
2023-02-15T21:07:00.712Z,50.70
2023-02-15T21:11:03.866Z,50.90
2023-02-15T21:15:28.371Z,51.00
2023-02-15T21:19:31.609Z,51.90
2023-02-15T21:23:38.079Z,52.60
2023-02-15T21:27:41.164Z,52.80
2023-02-15T21:31:44.552Z,52.70
2023-02-15T21:35:51.037Z,53.10
2023-02-15T21:39:53.806Z,53.50
2023-02-15T21:44:14.869Z,53.50
2023-02-15T21:48:17.696Z,54.50
2023-02-15T21:52:23.826Z,55.30
2023-02-15T21:56:27.131Z,55.50
2023-02-15T22:00:30.905Z,54.80
2023-02-15T22:04:33.672Z,54.90
2023-02-15T22:08:36.476Z,55.00
2023-02-15T22:12:41.192Z,55.10
2023-02-15T22:16:43.910Z,55.10
2023-02-15T22:20:46.892Z,55.10
2023-02-15T22:24:50.249Z,56.10
2023-02-15T22:28:53.450Z,56.30
2023-02-15T22:32:57.631Z,56.10
2023-02-15T22:37:00.415Z,56.70
2023-02-15T22:41:04.958Z,57.00
2023-02-15T22:45:21.011Z,57.30
2023-02-15T22:49:25.684Z,57.70
2023-02-15T22:53:28.454Z,57.00
2023-02-15T22:57:32.817Z,57.20
2023-02-15T23:01:38.071Z,58.00
2023-02-15T23:05:40.859Z,58.20
2023-02-15T23:09:44.330Z,58.20
2023-02-15T23:13:49.778Z,58.30
2023-02-15T23:17:52.544Z,58.20
2023-02-15T23:21:55.508Z,58.40
2023-02-15T23:25:58.792Z,58.70
2023-02-15T23:30:06.380Z,59.40
2023-02-15T23:34:25.855Z,60.30
2023-02-15T23:38:30.667Z,61.20
2023-02-15T23:42:35.978Z,61.10
2023-02-15T23:46:44.898Z,61.10
2023-02-15T23:50:47.844Z,60.70
2023-02-15T23:54:50.706Z,60.50
2023-02-15T23:58:53.709Z,60.60
